Terminal Aerodrome Forecast
Issued by NWS

Home | Current Version | Previous Version | Text Only | Print | Product List | Glossary On
Versions: 1 2 3 4 5 6 7 8 9 10 11 12 13 14 15 16 17 18 19
000
FTUS45 KABQ 221750
TAFAEG
TAF
KAEG 221750Z 2218/2318 VRB05KT P6SM SCT040 BKN200
     FM221900 16014KT P6SM SCT060
     FM222030 18020G30KT P6SM SCT080
     FM230200 20010KT P6SM FEW090
     FM230600 27008KT P6SM SKC=

USA.gov is the U.S. government's official web portal to all federal, state and local government web resources and services.